Aviation Digital Data Service (ADDS)

Output produced by TAFs form (1000 UTC 23 April 2017)
found at http://www.aviationweather.gov/adds/tafs/
 
METAR text: OKBK 231000Z 28005KT 8000 NSC 39/M00 Q1009 NOSIG
Conditions at: OKBK (KUWAIT INTL (MIL, KW) observed 1000 UTC 23 April 2017
Temperature: 39.0°C (102°F)
Dewpoint: 0.0°C (32°F) [RH = 9%]
Pressure (altimeter): 29.79 inches Hg (1009.0 mb)
Winds: from the W (280 degrees) at 6 MPH (5 knots; 2.6 m/s)
Visibility: 5 miles (8 km)
Ceiling: at least 12,000 feet AGL
Clouds: sky clear below 12,000 feet AGL
Weather: no significant weather observed at this time

Forecast for: OKBK (KUWAIT INTL (MIL, KW)
Text: TAF OKBK 230445Z 2306/2412 04006G16KT 6000 NSC
Forecast period: 0600 UTC 23 April 2017 to 1200 UTC 24 April 2017
Forecast type: FROM: standard forecast or significant change
Winds: from the NE (40 degrees) at 7 MPH (6 knots; 3.1 m/s)
gusting to 18 MPH (16 knots; 8.3 m/s)
Visibility: 4 miles (6 km)
Clouds: not forecast
Weather: no significant weather forecast for this period
Text: TEMPO 2306/2314 VRB03KT 4000 HZ
Forecast period: 0600 to 1400 UTC 23 April 2017
Forecast type: TEMPORARY: The following changes expected for less than half the time period
Winds: variable direction winds at 3 MPH (3 knots; 1.6 m/s)
Visibility: 2.49 miles (4.01 km)
Weather: HZ  (haze)